Time;durP1;ratioP1;P1;durP2;ratioP2;P2;SDS_P1;SDS_P2;PMS_P1;PMS_P2;Temp;Humidity;BMP_temperature;BMP_pressure;BME280_temperature;BME280_humidity;BME280_pressure;Samples;Min_cycle;Max_cycle;Signal;HPM_P1;HPM_P2
2021/07/29 00:02:42;;;;;;;5.50;2.67;;;;;;;20.93;57.84;97783.59;8396685;28;20220;-65
2021/07/29 00:07:00;;;;;;;4.03;2.60;;;;;;;21.08;57.50;97782.22;8383507;28;20209;-65
2021/07/29 00:11:33;;;;;;;2.93;2.60;;;;;;;20.68;58.75;97777.06;8387312;28;20231;-65
2021/07/29 00:16:02;;;;;;;4.53;2.60;;;;;;;20.94;57.76;97774.72;8387744;28;20205;-65
2021/07/29 00:20:18;;;;;;;2.80;2.60;;;;;;;20.91;57.70;97776.81;8387406;28;20206;-65
2021/07/29 00:24:35;;;;;;;2.60;2.40;;;;;;;20.88;57.80;97765.59;8387355;28;20228;-65
2021/07/29 00:28:53;;;;;;;2.30;2.10;;;;;;;20.92;57.52;97767.94;8387299;28;20211;-65
2021/07/29 00:33:23;;;;;;;3.70;2.30;;;;;;;20.82;57.68;97768.78;8386366;28;20203;-65
2021/07/29 00:37:36;;;;;;;3.07;2.40;;;;;;;20.84;58.02;97769.47;8385994;28;20479;-65
2021/07/29 00:42:01;;;;;;;3.37;2.23;;;;;;;20.74;58.00;97779.16;8386136;28;20202;-65
2021/07/29 00:46:20;;;;;;;3.97;2.40;;;;;;;20.87;57.58;97771.00;8386339;28;20415;-65
2021/07/29 00:50:35;;;;;;;4.33;2.40;;;;;;;20.85;57.68;97771.13;8385573;28;20200;-66
2021/07/29 00:54:53;;;;;;;3.43;2.23;;;;;;;20.76;57.93;97777.22;8386298;28;20301;-65
2021/07/29 00:59:16;;;;;;;3.73;2.40;;;;;;;20.77;57.65;97783.31;8384791;28;20237;-65
2021/07/29 01:03:35;;;;;;;3.90;2.30;;;;;;;20.78;57.70;97779.72;8386149;28;20225;-66
2021/07/29 01:07:49;;;;;;;3.37;2.60;;;;;;;20.65;57.75;97775.53;8385404;28;20202;-65
2021/07/29 01:11:59;;;;;;;3.43;2.20;;;;;;;20.68;58.01;97777.91;8385526;28;20228;-65
2021/07/29 01:16:17;;;;;;;5.47;2.50;;;;;;;20.68;57.73;97775.28;8385374;28;20203;-65
2021/07/29 01:20:47;;;;;;;3.93;2.50;;;;;;;20.64;57.79;97775.69;8385247;28;20199;-65
2021/07/29 01:25:01;;;;;;;5.33;2.70;;;;;;;20.62;57.82;97774.97;8385142;28;20632;-65
2021/07/29 01:29:24;;;;;;;3.43;2.40;;;;;;;20.52;58.08;97774.91;8385491;28;20200;-65
2021/07/29 01:33:49;;;;;;;4.30;2.20;;;;;;;20.56;57.66;97778.97;8385153;28;20203;-65
2021/07/29 01:38:16;;;;;;;4.30;2.10;;;;;;;20.53;57.65;97778.41;8384772;28;20376;-65
2021/07/29 01:42:36;;;;;;;2.80;2.30;;;;;;;20.48;57.69;97784.06;8384562;28;20202;-65
2021/07/29 01:46:56;;;;;;;3.97;2.20;;;;;;;20.35;58.14;97786.91;8387576;28;20225;-65
2021/07/29 01:51:15;;;;;;;5.87;2.10;;;;;;;20.41;57.81;97783.78;8415051;28;20206;-65
2021/07/29 01:55:42;;;;;;;3.47;2.30;;;;;;;20.45;57.30;97784.34;8417215;28;20207;-65
2021/07/29 01:59:58;;;;;;;2.80;2.20;;;;;;;20.39;57.52;97780.44;8416868;28;20240;-65
2021/07/29 02:04:10;;;;;;;4.13;2.50;;;;;;;20.41;57.81;97778.50;8417383;28;20228;-66
2021/07/29 02:08:31;;;;;;;3.40;2.50;;;;;;;20.31;57.88;97773.22;8416422;28;20200;-65
2021/07/29 02:12:45;;;;;;;3.27;2.20;;;;;;;20.29;57.95;97787.47;8417491;28;20206;-65
2021/07/29 02:17:05;;;;;;;4.10;2.50;;;;;;;20.19;58.18;97789.22;8417060;28;20203;-65
2021/07/29 02:21:30;;;;;;;3.03;2.47;;;;;;;20.27;57.78;97794.66;8416512;28;20490;-65
2021/07/29 02:25:50;;;;;;;3.13;2.57;;;;;;;20.14;58.21;97792.25;8416341;28;20232;-65
2021/07/29 02:30:23;;;;;;;3.20;2.40;;;;;;;20.17;57.82;97797.25;8416467;28;20201;-65
2021/07/29 02:34:43;;;;;;;3.83;2.50;;;;;;;20.10;57.97;97804.84;8416042;28;20218;-65
2021/07/29 02:39:01;;;;;;;3.73;2.30;;;;;;;20.14;58.00;97794.03;8416049;28;20200;-65
2021/07/29 02:43:17;;;;;;;3.57;2.30;;;;;;;20.06;57.96;97805.22;8413941;28;20205;-66
2021/07/29 02:47:36;;;;;;;3.10;2.60;;;;;;;20.12;58.09;97807.31;8414562;28;20203;-65
2021/07/29 02:51:59;;;;;;;3.93;2.50;;;;;;;20.06;58.12;97807.84;8415660;28;20219;-65
2021/07/29 02:56:08;;;;;;;3.47;2.23;;;;;;;20.00;58.02;97806.59;8415669;28;20214;-65
2021/07/29 03:00:17;;;;;;;3.23;2.37;;;;;;;19.93;58.18;97805.44;8415339;28;20291;-65
2021/07/29 03:04:25;;;;;;;4.33;2.57;;;;;;;19.91;58.57;97810.00;8415743;28;20222;-65
2021/07/29 03:08:50;;;;;;;4.13;2.60;;;;;;;19.84;58.28;97804.44;8414465;28;20491;-65
2021/07/29 03:12:59;;;;;;;3.50;2.70;;;;;;;19.79;58.72;97808.41;8415487;28;20207;-65
2021/07/29 03:17:07;;;;;;;3.03;2.60;;;;;;;19.82;58.64;97808.13;8415981;28;20272;-65
2021/07/29 03:21:19;;;;;;;3.97;2.73;;;;;;;19.80;58.66;97804.81;8415376;28;20200;-65
2021/07/29 03:25:30;;;;;;;3.17;2.60;;;;;;;19.77;58.43;97805.09;8415803;28;20226;-65
2021/07/29 03:29:40;;;;;;;5.40;2.87;;;;;;;19.63;58.92;97801.81;8414545;28;20272;-65
2021/07/29 03:33:49;;;;;;;3.53;2.40;;;;;;;19.69;58.79;97801.28;8414988;28;20199;-65
2021/07/29 03:38:03;;;;;;;4.70;2.97;;;;;;;19.70;58.58;97805.59;8415749;28;20211;-65
2021/07/29 03:42:23;;;;;;;4.47;2.70;;;;;;;19.71;58.91;97801.97;8418207;28;20214;-65
2021/07/29 03:46:30;;;;;;;4.07;2.97;;;;;;;19.66;58.50;97798.06;8420958;28;20227;-65
2021/07/29 03:50:40;;;;;;;3.27;2.80;;;;;;;19.66;58.79;97800.69;8388629;28;20231;-65
2021/07/29 03:54:59;;;;;;;4.03;2.60;;;;;;;19.67;58.50;97808.47;8384553;28;20255;-66
2021/07/29 03:59:16;;;;;;;4.13;3.20;;;;;;;19.63;58.49;97799.16;8408037;28;20529;-65
2021/07/29 04:03:23;;;;;;;4.37;3.13;;;;;;;19.63;58.43;97803.56;8420672;28;20195;-66
2021/07/29 04:07:38;;;;;;;4.40;3.10;;;;;;;19.60;58.33;97791.53;8420907;28;20223;-65
2021/07/29 04:11:49;;;;;;;4.20;2.80;;;;;;;19.57;58.42;97798.84;8420488;28;20199;-66
2021/07/29 04:16:04;;;;;;;4.50;3.10;;;;;;;19.53;58.55;97793.88;8421063;28;20214;-66
2021/07/29 04:20:13;;;;;;;5.23;3.00;;;;;;;19.55;58.71;97796.34;8420659;28;20205;-66
2021/07/29 04:24:26;;;;;;;4.07;2.83;;;;;;;19.60;58.31;97799.41;8419176;28;20418;-65
2021/07/29 04:28:34;;;;;;;11.47;3.57;;;;;;;19.58;58.53;97796.09;8419712;28;20203;-65
2021/07/29 04:32:54;;;;;;;4.27;3.03;;;;;;;19.57;58.59;97807.53;8420389;28;20501;-65
2021/07/29 04:37:04;;;;;;;3.60;2.87;;;;;;;19.64;58.28;97810.50;8419715;28;20528;-65
2021/07/29 04:41:19;;;;;;;8.97;3.10;;;;;;;19.58;59.03;97806.59;8418948;28;20195;-65
2021/07/29 04:45:34;;;;;;;4.50;3.40;;;;;;;19.61;58.66;97805.50;8419534;28;20223;-65
2021/07/29 04:49:51;;;;;;;5.47;2.90;;;;;;;19.66;58.90;97811.22;8391273;28;20202;-65
2021/07/29 04:53:55;;;;;;;4.53;3.10;;;;;;;19.69;58.99;97803.91;8385990;28;20251;-65
2021/07/29 04:58:16;;;;;;;3.23;2.93;;;;;;;19.81;58.83;97807.31;8383990;28;20211;-65
2021/07/29 05:02:36;;;;;;;4.50;3.10;;;;;;;19.65;59.22;97804.31;8385863;28;20200;-65
2021/07/29 05:06:43;;;;;;;4.90;3.07;;;;;;;19.77;59.20;97805.09;8385960;28;20239;-65
2021/07/29 05:10:50;;;;;;;4.80;3.33;;;;;;;19.70;59.49;97800.31;8396432;28;20199;-65
2021/07/29 05:15:00;;;;;;;5.20;3.30;;;;;;;19.83;59.05;97802.75;8401385;28;20202;-65
2021/07/29 05:19:06;;;;;;;3.53;3.10;;;;;;;20.01;58.53;97800.38;8401570;28;20196;-65
2021/07/29 05:23:11;;;;;;;5.97;2.87;;;;;;;20.03;58.04;97800.22;8401512;28;20206;-65
2021/07/29 05:27:25;;;;;;;4.27;3.00;;;;;;;20.08;58.08;97790.97;8386887;28;20228;-64
2021/07/29 05:31:32;;;;;;;3.70;2.90;;;;;;;20.25;57.36;97800.03;8391476;28;20200;-64
2021/07/29 05:35:40;;;;;;;3.80;2.83;;;;;;;20.25;56.67;97797.41;8417814;28;20202;-64
2021/07/29 05:39:47;;;;;;;4.33;2.97;;;;;;;20.43;56.93;97802.06;8418286;28;20200;-64
2021/07/29 05:43:50;;;;;;;6.50;2.73;;;;;;;20.30;56.86;97805.75;8418126;28;20266;-64
2021/07/29 05:47:53;;;;;;;4.10;3.20;;;;;;;20.43;56.85;97808.13;8417540;28;20249;-64
2021/07/29 05:51:58;;;;;;;7.83;3.10;;;;;;;20.44;55.81;97809.78;8417736;28;20553;-64
2021/07/29 05:56:12;;;;;;;3.77;3.33;;;;;;;20.69;55.35;97812.94;8417769;28;20214;-64
2021/07/29 06:00:33;;;;;;;4.67;3.57;;;;;;;20.62;55.35;97810.03;8417124;28;20269;-64
2021/07/29 06:04:54;;;;;;;6.47;3.37;;;;;;;20.74;55.32;97818.63;8416193;28;20296;-64
2021/07/29 06:09:23;;;;;;;4.97;3.10;;;;;;;20.96;54.60;97824.59;8417136;28;20504;-64
2021/07/29 06:13:44;;;;;;;8.20;3.40;;;;;;;20.98;53.91;97818.25;8416639;28;20219;-64
2021/07/29 06:18:00;;;;;;;7.47;3.10;;;;;;;21.03;53.23;97817.81;8415847;28;20213;-64
2021/07/29 06:22:21;;;;;;;4.97;2.97;;;;;;;21.33;53.04;97810.78;8416447;28;20286;-64
2021/07/29 06:26:48;;;;;;;3.50;2.93;;;;;;;21.51;52.32;97803.00;8416679;28;20231;-64
2021/07/29 06:31:04;;;;;;;4.70;2.87;;;;;;;21.82;51.32;97812.38;8416589;28;20199;-64
2021/07/29 06:35:28;;;;;;;4.03;3.10;;;;;;;21.84;50.91;97813.06;8416356;28;20204;-64
2021/07/29 06:39:54;;;;;;;3.70;2.90;;;;;;;21.91;50.10;97812.50;8415969;28;20201;-64
2021/07/29 06:44:11;;;;;;;5.87;2.73;;;;;;;21.98;50.21;97822.31;8416232;28;20251;-64
2021/07/29 06:48:40;;;;;;;7.97;2.80;;;;;;;21.52;50.35;97818.69;8415700;28;20228;-66
2021/07/29 06:52:56;;;;;;;4.77;3.00;;;;;;;21.49;50.64;97813.69;8415496;28;20219;-66
2021/07/29 06:57:04;;;;;;;4.13;2.63;;;;;;;21.94;51.30;97820.13;8416142;28;20240;-66
2021/07/29 07:01:10;;;;;;;3.03;2.50;;;;;;;21.75;50.33;97821.84;8416122;28;20235;-66
2021/07/29 07:05:14;;;;;;;4.80;2.83;;;;;;;21.62;50.99;97823.94;8416263;28;20226;-66
2021/07/29 07:09:23;;;;;;;3.07;2.50;;;;;;;21.98;50.84;97821.50;8415956;28;20210;-66
2021/07/29 07:13:36;;;;;;;3.50;2.97;;;;;;;21.79;51.67;97825.84;8414287;28;20205;-66
2021/07/29 07:17:59;;;;;;;3.80;2.73;;;;;;;22.44;50.66;97830.38;8419634;28;20217;-67
2021/07/29 07:22:10;;;;;;;5.20;2.50;;;;;;;22.49;50.25;97822.84;8421586;28;20485;-68
2021/07/29 07:26:30;;;;;;;3.77;2.53;;;;;;;22.72;49.78;97827.72;8422642;28;20228;-67
2021/07/29 07:30:56;;;;;;;4.60;2.63;;;;;;;22.83;49.48;97828.34;8422194;28;20203;-67
2021/07/29 07:35:14;;;;;;;5.10;2.70;;;;;;;22.62;50.25;97833.06;8420585;28;20198;-67
2021/07/29 07:39:27;;;;;;;3.80;2.13;;;;;;;22.53;49.92;97829.50;8422173;28;20205;-67
2021/07/29 07:43:40;;;;;;;6.13;2.63;;;;;;;23.08;49.28;97804.84;8421904;28;20202;-68
2021/07/29 07:47:55;;;;;;;4.87;2.90;;;;;;;23.66;47.23;97802.66;8421719;28;20230;-67
2021/07/29 07:52:01;;;;;;;5.50;2.50;;;;;;;23.56;48.10;97813.34;8421168;28;20226;-68
2021/07/29 07:56:07;;;;;;;5.80;2.50;;;;;;;23.46;48.89;97820.53;8421264;28;20202;-69
2021/07/29 08:00:13;;;;;;;5.23;2.60;;;;;;;23.08;48.69;97822.53;8420698;28;20227;-69
2021/07/29 08:04:16;;;;;;;5.47;2.30;;;;;;;22.77;49.06;97825.47;8420755;28;20293;-69
2021/07/29 08:08:21;;;;;;;6.27;2.50;;;;;;;22.87;49.62;97828.06;8421008;28;20563;-69
2021/07/29 08:12:24;;;;;;;6.67;3.00;;;;;;;23.38;48.33;97808.06;8420977;28;20262;-69
2021/07/29 08:16:28;;;;;;;4.53;2.27;;;;;;;23.54;48.01;97802.91;8420936;28;20273;-68
2021/07/29 08:20:31;;;;;;;3.97;2.70;;;;;;;23.72;47.26;97812.63;8420756;28;20217;-68
2021/07/29 08:24:36;;;;;;;3.37;2.50;;;;;;;24.24;45.91;97804.69;8420118;28;20203;-69
2021/07/29 08:28:42;;;;;;;4.50;2.50;;;;;;;23.81;46.89;97795.88;8419751;28;20264;-69
2021/07/29 08:32:45;;;;;;;4.83;2.90;;;;;;;24.71;43.78;97795.44;8420943;28;20199;-69
2021/07/29 08:36:48;;;;;;;8.27;2.60;;;;;;;24.87;44.07;97781.44;8420313;28;20226;-69
2021/07/29 08:40:55;;;;;;;4.47;2.93;;;;;;;25.15;44.10;97792.53;8420164;28;20200;-69
2021/07/29 08:44:59;;;;;;;4.57;2.50;;;;;;;25.49;42.00;97779.16;8420443;28;20380;-69
2021/07/29 08:49:03;;;;;;;6.43;2.73;;;;;;;25.11;42.21;97778.81;8397328;28;20230;-68
2021/07/29 08:53:08;;;;;;;6.33;3.00;;;;;;;25.40;42.00;97777.50;8386690;28;20220;-70
2021/07/29 08:57:17;;;;;;;6.30;2.80;;;;;;;25.27;41.90;97772.72;8386307;28;20211;-69
2021/07/29 09:01:20;;;;;;;6.17;2.97;;;;;;;25.41;42.59;97768.56;8385589;28;20239;-69
2021/07/29 09:05:24;;;;;;;5.73;3.10;;;;;;;26.08;40.53;97772.75;8386124;28;20201;-68
2021/07/29 09:09:39;;;;;;;4.87;3.03;;;;;;;25.33;41.98;97772.03;8386341;28;20461;-68
2021/07/29 09:14:01;;;;;;;4.03;2.93;;;;;;;24.69;42.58;97785.00;8386053;28;20385;-68
2021/07/29 09:18:05;;;;;;;7.70;3.07;;;;;;;25.46;41.09;97773.38;8385945;28;20204;-68
2021/07/29 09:22:10;;;;;;;5.97;3.00;;;;;;;25.79;41.08;97781.25;8385747;28;20204;-75
2021/07/29 09:26:13;;;;;;;9.40;3.30;;;;;;;24.94;43.59;97788.56;8385627;28;20227;-62
2021/07/29 09:30:22;;;;;;;5.63;2.87;;;;;;;24.95;42.35;97784.91;8385842;28;20386;-71
2021/07/29 09:34:25;;;;;;;4.93;3.07;;;;;;;26.14;40.67;97785.31;8385816;28;20275;-74
2021/07/29 09:38:30;;;;;;;4.07;2.93;;;;;;;26.70;38.88;97788.75;8390074;28;20197;-72
2021/07/29 09:42:33;;;;;;;3.27;2.90;;;;;;;25.75;40.74;97780.78;8401034;28;20191;-73
2021/07/29 09:46:38;;;;;;;7.37;3.20;;;;;;;24.84;41.86;97784.38;8400613;28;20227;-71
2021/07/29 09:50:42;;;;;;;4.80;2.97;;;;;;;24.74;42.79;97785.38;8400451;28;20500;-71
2021/07/29 09:54:47;;;;;;;10.07;3.27;;;;;;;25.49;39.84;97779.16;8401919;28;20237;-71
2021/07/29 09:58:52;;;;;;;9.73;3.10;;;;;;;26.03;36.98;97767.16;8407599;28;20239;-71
2021/07/29 10:02:57;;;;;;;6.23;3.40;;;;;;;26.14;35.87;97762.28;8404227;28;20307;-69
2021/07/29 10:07:05;;;;;;;3.93;2.90;;;;;;;26.58;36.20;97782.16;8400848;28;20217;-69
2021/07/29 10:11:13;;;;;;;5.13;3.00;;;;;;;25.69;38.55;97776.16;8402980;28;20387;-70
2021/07/29 10:15:39;;;;;;;12.00;3.40;;;;;;;25.45;37.39;97777.81;8404644;28;20370;-70
2021/07/29 10:20:19;;;;;;;7.90;3.23;;;;;;;25.44;37.26;97789.44;8405926;28;20514;-72
2021/07/29 10:24:23;;;;;;;6.33;3.13;;;;;;;25.92;36.44;97781.59;8393081;28;20201;-72
2021/07/29 10:28:27;;;;;;;8.33;3.23;;;;;;;25.93;36.58;97789.38;8402943;28;20222;-71
2021/07/29 10:32:46;;;;;;;9.03;3.37;;;;;;;25.60;36.31;97785.09;8399200;28;20197;-73
2021/07/29 10:36:50;;;;;;;7.97;3.30;;;;;;;25.38;36.54;97790.09;8382588;28;20204;-73
2021/07/29 10:40:54;;;;;;;4.53;2.93;;;;;;;25.82;35.90;97783.59;8382884;28;20386;-72
2021/07/29 10:44:58;;;;;;;5.80;3.37;;;;;;;26.58;34.83;97778.66;8382916;28;20269;-72
2021/07/29 10:49:16;;;;;;;6.33;3.47;;;;;;;26.86;34.15;97769.22;8390190;28;20288;-73
2021/07/29 10:53:22;;;;;;;6.13;3.17;;;;;;;26.59;34.92;97777.69;8382612;28;20229;-73
2021/07/29 10:57:26;;;;;;;3.77;2.70;;;;;;;26.58;35.72;97776.00;8383119;28;20213;-71
2021/07/29 11:01:48;;;;;;;6.10;3.20;;;;;;;25.96;36.74;97777.59;8382525;28;20289;-71
2021/07/29 11:06:05;;;;;;;4.40;2.77;;;;;;;26.25;36.37;97776.16;8382761;28;20224;-72
2021/07/29 11:10:12;;;;;;;5.83;3.00;;;;;;;26.42;35.83;97768.97;8382915;28;20434;-73
2021/07/29 11:14:22;;;;;;;6.87;2.87;;;;;;;27.08;35.93;97772.09;8382611;28;20367;-70
2021/07/29 11:18:44;;;;;;;6.27;3.40;;;;;;;26.95;33.28;97769.19;8382073;28;20303;-68
2021/07/29 11:22:55;;;;;;;6.47;3.27;;;;;;;27.36;32.83;97768.88;8382627;28;20492;-68
2021/07/29 11:27:18;;;;;;;5.37;3.37;;;;;;;26.91;32.44;97760.75;8381175;28;20225;-68
2021/07/29 11:31:41;;;;;;;3.40;2.80;;;;;;;27.41;31.36;97762.03;8382082;28;20204;-68
2021/07/29 11:35:49;;;;;;;5.33;3.30;;;;;;;27.10;31.48;97756.78;8379535;28;20200;-68
2021/07/29 11:39:58;;;;;;;4.20;3.00;;;;;;;27.48;30.62;97772.78;8381407;28;20211;-68
2021/07/29 11:44:17;;;;;;;6.60;3.00;;;;;;;27.07;32.32;97759.78;8391567;28;20210;-68
2021/07/29 11:48:43;;;;;;;4.83;2.97;;;;;;;26.73;33.94;97779.59;8415347;28;20225;-68
2021/07/29 11:53:02;;;;;;;4.97;3.07;;;;;;;26.52;33.37;97775.72;8413953;28;20222;-68
2021/07/29 11:57:37;;;;;;;7.10;3.10;;;;;;;26.58;33.75;97776.84;8414849;28;20204;-68
2021/07/29 12:02:01;;;;;;;6.67;3.23;;;;;;;26.98;32.93;97766.16;8414629;28;20235;-68
2021/07/29 12:06:27;;;;;;;9.90;3.50;;;;;;;27.63;31.69;97762.16;8420719;28;20206;-68
2021/07/29 12:10:49;;;;;;;5.27;3.20;;;;;;;27.87;31.02;97764.56;8420341;28;20402;-68
2021/07/29 12:15:06;;;;;;;3.83;2.83;;;;;;;28.37;30.01;97746.19;8420492;28;20225;-67
2021/07/29 12:19:32;;;;;;;5.47;3.47;;;;;;;28.17;31.11;97755.78;8420701;28;20282;-68
2021/07/29 12:23:54;;;;;;;4.57;3.27;;;;;;;27.79;29.88;97759.31;8419831;28;20207;-68
2021/07/29 12:28:11;;;;;;;7.87;3.43;;;;;;;27.19;31.08;97762.84;8418826;28;20228;-68
2021/07/29 12:32:32;;;;;;;3.90;3.30;;;;;;;27.11;32.25;97747.78;8420615;28;20281;-68
2021/07/29 12:37:00;;;;;;;6.63;3.60;;;;;;;27.77;30.19;97752.53;8419989;28;20212;-68
2021/07/29 12:41:30;;;;;;;6.87;3.53;;;;;;;27.50;30.84;97742.31;8419200;28;20199;-68
2021/07/29 12:45:53;;;;;;;7.43;3.53;;;;;;;27.93;30.18;97736.44;8408554;28;20199;-71
2021/07/29 12:50:06;;;;;;;9.47;3.60;;;;;;;27.79;31.00;97747.88;8419856;28;20271;-73
2021/07/29 12:54:23;;;;;;;5.47;3.90;;;;;;;27.39;30.64;97741.94;8418948;28;20424;-71
2021/07/29 12:58:40;;;;;;;8.20;4.13;;;;;;;27.19;30.58;97738.91;8419463;28;20206;-71
2021/07/29 13:02:47;;;;;;;4.27;3.83;;;;;;;27.83;30.33;97746.47;8419468;28;20558;-71
2021/07/29 13:06:54;;;;;;;4.33;3.23;;;;;;;28.07;29.80;97738.25;8419132;28;20278;-71
2021/07/29 13:11:24;;;;;;;4.93;3.63;;;;;;;28.19;29.39;97733.28;8419456;28;20489;-71
2021/07/29 13:15:38;;;;;;;6.77;3.80;;;;;;;27.20;31.12;97725.47;8411229;28;20226;-70
2021/07/29 13:19:49;;;;;;;4.30;3.30;;;;;;;27.90;30.88;97726.16;8401477;28;20512;-71
2021/07/29 13:24:02;;;;;;;7.07;3.50;;;;;;;27.27;29.97;97729.09;8401057;28;20549;-70
2021/07/29 13:28:08;;;;;;;5.40;3.83;;;;;;;27.92;30.42;97718.00;8403373;28;20363;-70
2021/07/29 13:32:14;;;;;;;4.93;3.77;;;;;;;27.19;30.50;97715.00;8412454;28;20196;-70
2021/07/29 13:36:22;;;;;;;5.43;3.70;;;;;;;27.48;30.68;97714.28;8415315;28;20266;-70
2021/07/29 13:40:27;;;;;;;5.33;3.93;;;;;;;27.92;30.02;97713.50;8400940;28;20201;-70
2021/07/29 13:44:41;;;;;;;5.73;3.90;;;;;;;27.87;29.87;97706.03;8399682;28;20196;-71
2021/07/29 13:48:45;;;;;;;6.13;4.10;;;;;;;27.97;29.26;97708.44;8400409;28;20326;-71
2021/07/29 13:52:53;;;;;;;5.77;3.50;;;;;;;28.13;28.79;97696.75;8399076;28;20249;-69
2021/07/29 13:57:00;;;;;;;7.83;3.60;;;;;;;27.97;30.30;97688.97;8400233;28;20217;-69
2021/07/29 14:01:14;;;;;;;5.60;3.60;;;;;;;28.37;29.21;97695.63;8399884;28;20237;-70
2021/07/29 14:05:31;;;;;;;5.90;3.40;;;;;;;28.40;28.77;97679.25;8399035;28;20221;-70
2021/07/29 14:09:48;;;;;;;7.30;3.60;;;;;;;27.97;29.41;97689.81;8410815;28;20220;-70
2021/07/29 14:14:03;;;;;;;7.53;4.20;;;;;;;27.15;30.75;97689.78;8411411;28;20206;-70
2021/07/29 14:18:15;;;;;;;6.60;3.40;;;;;;;27.77;29.88;97683.38;8383839;28;20201;-70
2021/07/29 14:26:40;;;;;;;4.03;3.10;;;;;;;27.99;29.77;97692.31;8398652;28;20201;-66
2021/07/29 14:30:43;;;;;;;3.27;2.90;;;;;;;28.27;29.57;97695.91;8399254;28;20228;-65
2021/07/29 14:34:47;;;;;;;5.80;3.40;;;;;;;27.94;29.79;97684.03;8399257;28;20216;-66
2021/07/29 14:38:50;;;;;;;8.53;3.70;;;;;;;27.67;30.00;97684.47;8399318;28;20195;-66
2021/07/29 14:42:54;;;;;;;8.07;3.33;;;;;;;27.85;30.47;97689.44;8399143;28;20204;-66
2021/07/29 14:51:25;;;;;;;3.33;3.00;;;;;;;27.80;29.96;97685.69;8398782;28;20283;-65
2021/07/29 14:55:29;;;;;;;6.47;3.20;;;;;;;27.93;29.71;97685.03;8381964;28;20524;-66
2021/07/29 16:09:50;;;;;;;5.30;2.87;;;;;;;26.93;32.17;97660.44;8403534;28;20228;-69
2021/07/29 16:14:00;;;;;;;5.20;2.93;;;;;;;26.85;31.92;97658.66;8403595;28;20191;-68
2021/07/29 16:18:05;;;;;;;4.37;3.07;;;;;;;26.23;31.98;97653.44;8403568;28;20523;-70
2021/07/29 16:22:09;;;;;;;7.67;2.90;;;;;;;26.23;32.18;97658.75;8403275;28;20207;-72
2021/07/29 16:26:12;;;;;;;6.17;2.50;;;;;;;26.48;32.82;97654.09;8403088;28;20202;-71
2021/07/29 16:30:16;;;;;;;5.07;2.90;;;;;;;26.36;32.13;97647.56;8403001;28;20229;-71
2021/07/29 16:34:23;;;;;;;6.07;3.10;;;;;;;26.28;32.58;97649.25;8413770;28;20208;-70
2021/07/29 16:38:26;;;;;;;4.27;3.00;;;;;;;26.23;32.58;97642.81;8419348;28;20372;-71
2021/07/29 16:42:30;;;;;;;4.50;2.70;;;;;;;26.24;32.72;97634.69;8419943;28;20196;-71
2021/07/29 16:46:34;;;;;;;9.27;3.33;;;;;;;26.00;34.25;97645.44;8419947;28;20198;-72
2021/07/29 16:50:38;;;;;;;3.27;2.50;;;;;;;26.10;33.25;97644.25;8419257;28;20228;-68
2021/07/29 16:54:42;;;;;;;7.27;2.70;;;;;;;26.01;33.75;97639.13;8419512;28;20229;-69
2021/07/29 16:58:45;;;;;;;4.37;2.77;;;;;;;26.01;33.56;97636.47;8419741;28;20221;-70
2021/07/29 17:02:48;;;;;;;5.40;2.83;;;;;;;26.08;34.41;97629.47;8419250;28;20508;-71
2021/07/29 17:06:52;;;;;;;3.73;2.70;;;;;;;25.78;34.61;97625.78;8419520;28;20386;-70
2021/07/29 17:10:55;;;;;;;4.23;2.63;;;;;;;25.62;35.79;97639.94;8419131;28;20446;-69
2021/07/29 17:14:58;;;;;;;3.23;2.53;;;;;;;25.66;35.22;97636.75;8419367;28;20200;-71
2021/07/29 17:19:01;;;;;;;10.87;2.87;;;;;;;25.48;35.45;97637.00;8419084;28;20550;-70
2021/07/29 17:23:06;;;;;;;4.40;2.87;;;;;;;25.34;35.01;97633.25;8419010;28;20207;-70
2021/07/29 17:27:08;;;;;;;5.37;2.50;;;;;;;25.33;35.46;97638.72;8418626;28;20203;-67
2021/07/29 17:31:11;;;;;;;4.97;2.73;;;;;;;25.33;36.05;97630.75;8417673;28;20318;-71
2021/07/29 17:35:15;;;;;;;4.53;2.97;;;;;;;25.22;36.03;97631.09;8418268;28;20262;-72
2021/07/29 17:39:21;;;;;;;7.87;3.03;;;;;;;25.23;35.26;97628.31;8418122;28;20205;-72
2021/07/29 17:43:24;;;;;;;10.47;3.77;;;;;;;24.96;35.50;97637.44;8418203;28;20356;-74
2021/07/29 17:47:27;;;;;;;7.37;2.70;;;;;;;25.12;36.54;97634.75;8417802;28;20509;-73
2021/07/29 17:51:30;;;;;;;11.60;2.93;;;;;;;24.95;36.91;97641.06;8417533;28;20523;-71
2021/07/29 17:55:35;;;;;;;15.70;4.47;;;;;;;25.07;36.98;97634.41;8417783;28;20270;-71
2021/07/29 17:59:38;;;;;;;6.50;2.87;;;;;;;24.93;37.73;97629.81;8416469;28;20236;-73
2021/07/29 18:03:57;;;;;;;7.20;3.00;;;;;;;24.92;38.18;97641.38;8417547;28;20204;-74
2021/07/29 18:08:00;;;;;;;6.80;3.07;;;;;;;24.81;39.05;97631.13;8417399;28;20224;-71
2021/07/29 18:12:07;;;;;;;6.53;3.27;;;;;;;24.76;38.83;97628.97;8417229;28;20240;-70
2021/07/29 18:16:10;;;;;;;13.93;3.17;;;;;;;24.67;39.14;97628.16;8417085;28;20205;-71
2021/07/29 18:20:13;;;;;;;4.83;2.80;;;;;;;24.62;38.90;97624.34;8417156;28;20269;-72
2021/07/29 18:24:16;;;;;;;6.23;3.03;;;;;;;24.63;38.71;97629.47;8416966;28;20203;-71
2021/07/29 18:28:20;;;;;;;5.73;2.43;;;;;;;24.48;39.67;97628.44;8416940;28;20199;-71
2021/07/29 18:32:23;;;;;;;7.33;2.70;;;;;;;24.54;40.13;97625.16;8416226;28;20257;-71
2021/07/29 18:36:26;;;;;;;5.10;2.60;;;;;;;24.51;39.68;97623.69;8416575;28;20199;-71
2021/07/29 18:40:29;;;;;;;5.90;2.83;;;;;;;24.39;40.57;97630.28;8416762;28;20211;-71
2021/07/29 18:44:33;;;;;;;4.03;2.53;;;;;;;24.43;40.42;97622.81;8416526;28;20199;-72
2021/07/29 18:48:36;;;;;;;7.95;2.83;;;;;;;24.46;39.78;97625.13;8415834;28;20423;-65
2021/07/29 18:52:39;;;;;;;3.07;2.50;;;;;;;24.23;42.25;97628.41;8416468;28;20382;-64
2021/07/29 18:56:41;;;;;;;6.97;5.70;;;;;;;24.15;41.27;97629.22;8416080;28;20200;-65
2021/07/29 19:00:46;;;;;;;7.53;5.23;;;;;;;24.11;41.60;97633.19;8407999;28;20230;-64
2021/07/29 19:04:49;;;;;;;7.60;5.10;;;;;;;23.98;42.79;97638.13;8415839;28;20203;-65
2021/07/29 19:08:52;;;;;;;7.27;4.80;;;;;;;23.90;42.88;97632.81;8415671;28;20202;-65
2021/07/29 19:12:55;;;;;;;4.90;2.83;;;;;;;23.83;42.20;97647.66;8414648;28;20206;-65
2021/07/29 19:17:06;;;;;;;15.57;3.00;;;;;;;23.75;42.68;97649.22;8416146;28;20222;-65
2021/07/29 19:21:09;;;;;;;7.03;3.10;;;;;;;23.57;41.69;97648.47;8416292;28;20226;-65
2021/07/29 19:25:12;;;;;;;5.40;3.17;;;;;;;23.55;42.92;97653.94;8409990;28;20223;-65
2021/07/29 19:29:15;;;;;;;7.40;3.13;;;;;;;23.50;44.34;97658.88;8402608;28;20500;-65
2021/07/29 19:33:20;;;;;;;6.73;3.20;;;;;;;23.37;43.84;97658.47;8415243;28;20210;-65
2021/07/29 19:37:23;;;;;;;7.37;3.10;;;;;;;23.27;44.94;97661.22;8414990;28;20203;-65
2021/07/29 19:41:25;;;;;;;4.03;3.10;;;;;;;23.25;45.00;97652.63;8415480;28;20496;-65
2021/07/29 19:45:28;;;;;;;6.63;3.00;;;;;;;23.19;45.54;97651.44;8415263;28;20198;-66
2021/07/29 19:49:32;;;;;;;4.90;2.93;;;;;;;23.12;44.81;97653.03;8415192;28;20233;-65
2021/07/29 19:53:36;;;;;;;4.90;3.13;;;;;;;23.04;45.61;97652.97;8415115;28;20229;-65
2021/07/29 19:57:39;;;;;;;5.90;3.40;;;;;;;22.93;45.55;97661.94;8415171;28;20203;-66
2021/07/29 20:01:43;;;;;;;3.63;3.23;;;;;;;22.88;46.24;97664.19;8414942;28;20238;-65
2021/07/29 20:05:48;;;;;;;19.67;4.33;;;;;;;22.78;46.11;97669.56;8414597;28;20206;-65
2021/07/29 20:09:51;;;;;;;6.13;3.57;;;;;;;22.72;46.07;97675.47;8414995;28;20422;-64
2021/07/29 20:13:54;;;;;;;8.13;3.60;;;;;;;22.62;46.04;97672.91;8414922;28;20280;-64
2021/07/29 20:17:58;;;;;;;6.07;4.40;;;;;;;22.60;46.32;97668.78;8414880;28;20210;-64
2021/07/29 20:22:03;;;;;;;7.70;4.07;;;;;;;22.53;46.89;97675.63;8396133;28;20237;-65
2021/07/29 20:26:06;;;;;;;6.17;4.50;;;;;;;22.48;47.29;97676.06;8389306;28;20387;-65
2021/07/29 20:30:10;;;;;;;9.23;4.37;;;;;;;22.40;47.59;97674.19;8397881;28;20223;-64
2021/07/29 20:34:13;;;;;;;8.07;4.07;;;;;;;22.32;47.43;97668.00;8401750;28;20198;-64
2021/07/29 20:38:17;;;;;;;8.87;3.90;;;;;;;22.22;47.78;97665.41;8408231;28;20198;-65
2021/07/29 20:42:20;;;;;;;9.60;4.23;;;;;;;22.15;47.93;97665.16;8402371;28;20205;-64
2021/07/29 20:46:23;;;;;;;6.00;3.70;;;;;;;21.99;48.36;97667.59;8400896;28;20262;-64
2021/07/29 20:50:26;;;;;;;7.30;3.67;;;;;;;22.06;47.94;97666.84;8399535;28;20564;-64
2021/07/29 20:54:30;;;;;;;6.43;3.70;;;;;;;22.06;47.64;97674.78;8402341;28;20225;-64
2021/07/29 20:58:33;;;;;;;7.67;3.53;;;;;;;21.98;48.01;97674.69;8402307;28;20292;-65
2021/07/29 21:02:37;;;;;;;6.80;3.27;;;;;;;21.94;47.81;97675.97;8408702;28;20230;-66